sensor_id;sensor_type;location;lat;lon;timestamp;pressure;altitude;pressure_sealevel;temperature;humidity
55916;BME280;41826;53.246;-6.670;2023-04-27T00:00:49;99192.28;;;9.85;100.00
55916;BME280;41826;53.246;-6.670;2023-04-27T00:03:15;99188.59;;;9.71;100.00
55916;BME280;41826;53.246;-6.670;2023-04-27T00:05:40;99193.38;;;9.45;100.00
55916;BME280;41826;53.246;-6.670;2023-04-27T00:08:07;99185.28;;;9.54;100.00
55916;BME280;41826;53.246;-6.670;2023-04-27T00:10:33;99178.81;;;9.65;100.00
55916;BME280;41826;53.246;-6.670;2023-04-27T00:12:58;99175.72;;;9.85;100.00
55916;BME280;41826;53.246;-6.670;2023-04-27T00:15:24;99167.19;;;10.06;100.00
55916;BME280;41826;53.246;-6.670;2023-04-27T00:17:53;99182.78;;;9.84;100.00
55916;BME280;41826;53.246;-6.670;2023-04-27T00:20:18;99177.06;;;9.81;100.00
55916;BME280;41826;53.246;-6.670;2023-04-27T00:22:45;99174.78;;;10.01;100.00
55916;BME280;41826;53.246;-6.670;2023-04-27T00:25:10;99168.09;;;9.98;100.00
55916;BME280;41826;53.246;-6.670;2023-04-27T00:27:36;99173.69;;;10.10;100.00
55916;BME280;41826;53.246;-6.670;2023-04-27T00:30:01;99175.75;;;9.99;100.00
55916;BME280;41826;53.246;-6.670;2023-04-27T00:32:26;99178.28;;;9.47;100.00
55916;BME280;41826;53.246;-6.670;2023-04-27T00:34:52;99185.31;;;9.46;100.00
55916;BME280;41826;53.246;-6.670;2023-04-27T00:37:17;99175.09;;;9.60;100.00
55916;BME280;41826;53.246;-6.670;2023-04-27T00:39:43;99171.59;;;9.44;100.00
55916;BME280;41826;53.246;-6.670;2023-04-27T00:42:09;99177.25;;;9.56;100.00
55916;BME280;41826;53.246;-6.670;2023-04-27T00:44:38;99169.16;;;9.66;100.00
55916;BME280;41826;53.246;-6.670;2023-04-27T00:47:04;99167.50;;;9.42;100.00
55916;BME280;41826;53.246;-6.670;2023-04-27T00:49:30;99175.94;;;9.52;100.00
55916;BME280;41826;53.246;-6.670;2023-04-27T00:51:56;99202.34;;;9.50;100.00
55916;BME280;41826;53.246;-6.670;2023-04-27T00:54:22;99205.25;;;9.55;100.00
55916;BME280;41826;53.246;-6.670;2023-04-27T00:56:49;99213.97;;;9.48;100.00
55916;BME280;41826;53.246;-6.670;2023-04-27T00:59:15;99247.94;;;9.33;100.00
55916;BME280;41826;53.246;-6.670;2023-04-27T01:01:41;99279.44;;;9.08;100.00
55916;BME280;41826;53.246;-6.670;2023-04-27T01:04:06;99319.72;;;9.07;100.00
55916;BME280;41826;53.246;-6.670;2023-04-27T01:06:33;99345.28;;;8.89;100.00
55916;BME280;41826;53.246;-6.670;2023-04-27T01:08:59;99345.72;;;9.09;100.00
55916;BME280;41826;53.246;-6.670;2023-04-27T01:11:25;99324.53;;;9.35;100.00
55916;BME280;41826;53.246;-6.670;2023-04-27T01:13:51;99300.22;;;9.49;100.00
55916;BME280;41826;53.246;-6.670;2023-04-27T01:16:17;99278.59;;;9.55;100.00
55916;BME280;41826;53.246;-6.670;2023-04-27T01:18:43;99255.06;;;9.47;100.00
55916;BME280;41826;53.246;-6.670;2023-04-27T01:21:09;99302.47;;;9.29;100.00
55916;BME280;41826;53.246;-6.670;2023-04-27T01:23:35;99303.63;;;9.19;100.00
55916;BME280;41826;53.246;-6.670;2023-04-27T01:26:01;99311.09;;;9.38;100.00
55916;BME280;41826;53.246;-6.670;2023-04-27T01:28:26;99289.28;;;9.46;100.00
55916;BME280;41826;53.246;-6.670;2023-04-27T01:30:51;99298.63;;;9.48;100.00
55916;BME280;41826;53.246;-6.670;2023-04-27T01:33:17;99302.00;;;9.18;100.00
55916;BME280;41826;53.246;-6.670;2023-04-27T01:35:42;99327.50;;;9.32;100.00
55916;BME280;41826;53.246;-6.670;2023-04-27T01:38:08;99330.75;;;9.34;100.00
55916;BME280;41826;53.246;-6.670;2023-04-27T01:40:33;99310.91;;;9.48;100.00
55916;BME280;41826;53.246;-6.670;2023-04-27T01:42:58;99316.94;;;9.48;100.00
55916;BME280;41826;53.246;-6.670;2023-04-27T01:45:24;99338.91;;;9.47;100.00
55916;BME280;41826;53.246;-6.670;2023-04-27T01:47:50;99329.00;;;9.66;100.00
55916;BME280;41826;53.246;-6.670;2023-04-27T01:50:16;99316.84;;;9.73;100.00
55916;BME280;41826;53.246;-6.670;2023-04-27T01:52:42;99313.06;;;9.75;100.00
55916;BME280;41826;53.246;-6.670;2023-04-27T01:55:07;99322.69;;;9.83;100.00
55916;BME280;41826;53.246;-6.670;2023-04-27T01:57:33;99307.84;;;9.98;100.00
55916;BME280;41826;53.246;-6.670;2023-04-27T01:59:58;99333.75;;;9.93;100.00
55916;BME280;41826;53.246;-6.670;2023-04-27T02:02:23;99349.78;;;9.98;100.00
55916;BME280;41826;53.246;-6.670;2023-04-27T02:04:49;99364.06;;;9.96;100.00
55916;BME280;41826;53.246;-6.670;2023-04-27T02:07:14;99392.69;;;10.06;100.00
55916;BME280;41826;53.246;-6.670;2023-04-27T02:09:40;99366.41;;;10.14;100.00
55916;BME280;41826;53.246;-6.670;2023-04-27T02:12:05;99365.31;;;10.08;100.00
55916;BME280;41826;53.246;-6.670;2023-04-27T02:14:31;99427.94;;;10.03;100.00
55916;BME280;41826;53.246;-6.670;2023-04-27T02:16:56;99457.22;;;10.07;100.00
55916;BME280;41826;53.246;-6.670;2023-04-27T02:19:22;99488.19;;;10.11;100.00
55916;BME280;41826;53.246;-6.670;2023-04-27T02:21:47;99501.19;;;9.96;100.00
55916;BME280;41826;53.246;-6.670;2023-04-27T02:24:12;99505.56;;;10.12;100.00
55916;BME280;41826;53.246;-6.670;2023-04-27T02:26:38;99496.53;;;10.23;100.00
55916;BME280;41826;53.246;-6.670;2023-04-27T02:29:03;99508.63;;;10.24;100.00
55916;BME280;41826;53.246;-6.670;2023-04-27T02:31:29;99532.31;;;9.99;100.00
55916;BME280;41826;53.246;-6.670;2023-04-27T02:33:54;99577.19;;;10.05;100.00
55916;BME280;41826;53.246;-6.670;2023-04-27T02:36:20;99617.88;;;10.01;100.00
55916;BME280;41826;53.246;-6.670;2023-04-27T02:38:46;99706.03;;;9.93;100.00
55916;BME280;41826;53.246;-6.670;2023-04-27T02:41:11;99748.63;;;9.95;100.00
55916;BME280;41826;53.246;-6.670;2023-04-27T02:43:36;99766.66;;;9.98;100.00
55916;BME280;41826;53.246;-6.670;2023-04-27T02:46:03;99793.03;;;9.97;100.00
55916;BME280;41826;53.246;-6.670;2023-04-27T02:48:32;99865.34;;;10.08;100.00
55916;BME280;41826;53.246;-6.670;2023-04-27T02:50:57;99916.09;;;9.98;100.00
55916;BME280;41826;53.246;-6.670;2023-04-27T02:53:23;99968.75;;;10.05;100.00
55916;BME280;41826;53.246;-6.670;2023-04-27T02:55:48;100021.34;;;10.04;100.00
55916;BME280;41826;53.246;-6.670;2023-04-27T02:58:15;100024.75;;;9.96;100.00
55916;BME280;41826;53.246;-6.670;2023-04-27T03:00:42;100072.19;;;10.11;100.00
55916;BME280;41826;53.246;-6.670;2023-04-27T03:03:07;100020.78;;;10.26;100.00
55916;BME280;41826;53.246;-6.670;2023-04-27T03:05:34;100004.03;;;10.19;100.00
55916;BME280;41826;53.246;-6.670;2023-04-27T03:08:01;100042.72;;;10.25;100.00
55916;BME280;41826;53.246;-6.670;2023-04-27T03:10:26;100030.47;;;10.26;100.00
55916;BME280;41826;53.246;-6.670;2023-04-27T03:12:52;100017.72;;;10.31;100.00
55916;BME280;41826;53.246;-6.670;2023-04-27T03:15:17;100026.56;;;10.30;100.00
55916;BME280;41826;53.246;-6.670;2023-04-27T03:17:43;100084.66;;;10.17;100.00
55916;BME280;41826;53.246;-6.670;2023-04-27T03:20:08;100126.78;;;10.33;100.00
55916;BME280;41826;53.246;-6.670;2023-04-27T03:22:35;100102.16;;;10.34;100.00
55916;BME280;41826;53.246;-6.670;2023-04-27T03:25:01;100265.50;;;10.18;100.00
55916;BME280;41826;53.246;-6.670;2023-04-27T03:27:27;100383.94;;;10.24;100.00
55916;BME280;41826;53.246;-6.670;2023-04-27T03:29:52;100544.69;;;10.16;100.00
55916;BME280;41826;53.246;-6.670;2023-04-27T03:32:18;100652.91;;;10.18;100.00
55916;BME280;41826;53.246;-6.670;2023-04-27T03:34:44;100743.22;;;10.15;100.00
55916;BME280;41826;53.246;-6.670;2023-04-27T03:37:09;100890.25;;;10.14;100.00
55916;BME280;41826;53.246;-6.670;2023-04-27T03:39:35;100996.94;;;10.04;100.00
55916;BME280;41826;53.246;-6.670;2023-04-27T03:42:00;101107.59;;;10.18;100.00
55916;BME280;41826;53.246;-6.670;2023-04-27T03:44:26;101080.59;;;10.28;100.00
55916;BME280;41826;53.246;-6.670;2023-04-27T03:46:52;101132.31;;;10.16;100.00
55916;BME280;41826;53.246;-6.670;2023-04-27T03:49:17;101138.19;;;10.29;100.00
55916;BME280;41826;53.246;-6.670;2023-04-27T03:51:43;101124.09;;;10.30;100.00
55916;BME280;41826;53.246;-6.670;2023-04-27T03:54:08;101131.31;;;10.38;100.00
55916;BME280;41826;53.246;-6.670;2023-04-27T03:56:34;101165.50;;;10.27;100.00
55916;BME280;41826;53.246;-6.670;2023-04-27T03:59:00;101168.91;;;10.38;100.00
55916;BME280;41826;53.246;-6.670;2023-04-27T04:01:25;101204.63;;;10.30;100.00
55916;BME280;41826;53.246;-6.670;2023-04-27T04:03:50;101207.56;;;10.36;100.00
55916;BME280;41826;53.246;-6.670;2023-04-27T04:06:16;101197.56;;;10.30;100.00
55916;BME280;41826;53.246;-6.670;2023-04-27T04:08:42;101208.03;;;10.41;100.00
55916;BME280;41826;53.246;-6.670;2023-04-27T04:11:07;101126.13;;;10.48;100.00
55916;BME280;41826;53.246;-6.670;2023-04-27T04:13:33;101130.09;;;10.42;100.00
55916;BME280;41826;53.246;-6.670;2023-04-27T04:16:07;101102.81;;;10.54;100.00
55916;BME280;41826;53.246;-6.670;2023-04-27T04:18:34;100834.63;;;10.69;100.00
55916;BME280;41826;53.246;-6.670;2023-04-27T04:21:00;100957.88;;;10.60;100.00
55916;BME280;41826;53.246;-6.670;2023-04-27T04:23:26;100972.78;;;10.60;100.00
55916;BME280;41826;53.246;-6.670;2023-04-27T04:25:53;101059.78;;;10.46;100.00
55916;BME280;41826;53.246;-6.670;2023-04-27T04:28:21;101083.72;;;10.52;100.00
55916;BME280;41826;53.246;-6.670;2023-04-27T04:30:46;101139.13;;;10.49;100.00
55916;BME280;41826;53.246;-6.670;2023-04-27T04:33:12;101167.28;;;10.47;100.00
55916;BME280;41826;53.246;-6.670;2023-04-27T04:35:38;101063.31;;;10.56;100.00
55916;BME280;41826;53.246;-6.670;2023-04-27T04:38:04;101084.97;;;10.58;100.00
55916;BME280;41826;53.246;-6.670;2023-04-27T04:40:30;101086.66;;;10.59;100.00
55916;BME280;41826;53.246;-6.670;2023-04-27T04:42:55;101092.84;;;10.58;100.00
55916;BME280;41826;53.246;-6.670;2023-04-27T04:45:21;101139.69;;;10.53;100.00
55916;BME280;41826;53.246;-6.670;2023-04-27T04:47:48;101156.63;;;10.39;100.00
55916;BME280;41826;53.246;-6.670;2023-04-27T04:50:13;101199.25;;;10.31;100.00
55916;BME280;41826;53.246;-6.670;2023-04-27T04:52:39;101231.56;;;10.32;100.00
55916;BME280;41826;53.246;-6.670;2023-04-27T04:55:04;101254.84;;;10.25;100.00
55916;BME280;41826;53.246;-6.670;2023-04-27T04:57:30;101253.28;;;10.34;100.00
55916;BME280;41826;53.246;-6.670;2023-04-27T04:59:56;101245.84;;;10.39;100.00
55916;BME280;41826;53.246;-6.670;2023-04-27T05:02:22;101240.72;;;10.37;100.00
55916;BME280;41826;53.246;-6.670;2023-04-27T05:04:47;101253.41;;;10.32;100.00
55916;BME280;41826;53.246;-6.670;2023-04-27T05:07:13;101234.97;;;10.44;100.00
55916;BME280;41826;53.246;-6.670;2023-04-27T05:09:38;101224.84;;;10.39;100.00
55916;BME280;41826;53.246;-6.670;2023-04-27T05:12:04;101234.53;;;10.27;100.00
55916;BME280;41826;53.246;-6.670;2023-04-27T05:14:30;101239.56;;;10.30;100.00
55916;BME280;41826;53.246;-6.670;2023-04-27T05:16:55;101241.50;;;10.28;100.00
55916;BME280;41826;53.246;-6.670;2023-04-27T05:19:21;101244.69;;;10.32;100.00
55916;BME280;41826;53.246;-6.670;2023-04-27T05:21:46;101248.16;;;10.32;100.00
55916;BME280;41826;53.246;-6.670;2023-04-27T05:24:12;101243.66;;;10.23;100.00
55916;BME280;41826;53.246;-6.670;2023-04-27T05:26:38;101235.28;;;10.29;100.00
55916;BME280;41826;53.246;-6.670;2023-04-27T05:29:04;101235.44;;;10.16;100.00
55916;BME280;41826;53.246;-6.670;2023-04-27T05:31:29;101240.06;;;10.24;100.00
55916;BME280;41826;53.246;-6.670;2023-04-27T05:33:55;101243.28;;;10.28;100.00
55916;BME280;41826;53.246;-6.670;2023-04-27T05:36:20;101243.88;;;10.31;100.00
55916;BME280;41826;53.246;-6.670;2023-04-27T05:38:46;101240.97;;;10.34;100.00
55916;BME280;41826;53.246;-6.670;2023-04-27T05:41:12;101226.38;;;10.41;100.00
55916;BME280;41826;53.246;-6.670;2023-04-27T05:43:37;101210.25;;;10.46;100.00
55916;BME280;41826;53.246;-6.670;2023-04-27T05:46:03;101203.72;;;10.40;100.00
55916;BME280;41826;53.246;-6.670;2023-04-27T05:48:28;101175.56;;;10.43;100.00
55916;BME280;41826;53.246;-6.670;2023-04-27T05:50:58;101170.56;;;10.39;100.00
55916;BME280;41826;53.246;-6.670;2023-04-27T05:53:25;101201.25;;;10.39;100.00
55916;BME280;41826;53.246;-6.670;2023-04-27T05:55:51;101208.47;;;10.47;100.00
55916;BME280;41826;53.246;-6.670;2023-04-27T05:58:16;101213.13;;;10.43;100.00
55916;BME280;41826;53.246;-6.670;2023-04-27T06:00:42;101197.38;;;10.43;100.00
55916;BME280;41826;53.246;-6.670;2023-04-27T06:03:07;101214.47;;;10.37;100.00
55916;BME280;41826;53.246;-6.670;2023-04-27T06:05:33;101232.19;;;10.45;100.00
55916;BME280;41826;53.246;-6.670;2023-04-27T06:07:58;101230.09;;;10.39;100.00
55916;BME280;41826;53.246;-6.670;2023-04-27T06:10:24;101229.41;;;10.37;100.00
55916;BME280;41826;53.246;-6.670;2023-04-27T06:12:49;101233.22;;;10.33;100.00
55916;BME280;41826;53.246;-6.670;2023-04-27T06:15:15;101236.06;;;10.41;100.00
55916;BME280;41826;53.246;-6.670;2023-04-27T06:17:41;101231.75;;;10.40;100.00
55916;BME280;41826;53.246;-6.670;2023-04-27T06:20:08;101225.16;;;10.46;100.00
55916;BME280;41826;53.246;-6.670;2023-04-27T06:22:34;101222.09;;;10.40;100.00
55916;BME280;41826;53.246;-6.670;2023-04-27T06:25:02;101212.56;;;10.39;100.00
55916;BME280;41826;53.246;-6.670;2023-04-27T06:27:27;101208.97;;;10.61;100.00
55916;BME280;41826;53.246;-6.670;2023-04-27T06:29:53;101217.75;;;10.51;100.00
55916;BME280;41826;53.246;-6.670;2023-04-27T06:32:18;101207.50;;;10.48;100.00
55916;BME280;41826;53.246;-6.670;2023-04-27T06:34:44;101186.97;;;10.32;100.00
55916;BME280;41826;53.246;-6.670;2023-04-27T06:37:10;101175.25;;;10.36;100.00
55916;BME280;41826;53.246;-6.670;2023-04-27T06:39:35;101172.38;;;10.39;100.00
55916;BME280;41826;53.246;-6.670;2023-04-27T06:42:01;101184.75;;;10.58;100.00
55916;BME280;41826;53.246;-6.670;2023-04-27T06:44:29;101204.66;;;10.60;100.00
55916;BME280;41826;53.246;-6.670;2023-04-27T06:46:54;101194.06;;;10.41;100.00
55916;BME280;41826;53.246;-6.670;2023-04-27T06:49:21;101171.34;;;10.30;100.00
55916;BME280;41826;53.246;-6.670;2023-04-27T06:51:47;101170.22;;;10.54;100.00
55916;BME280;41826;53.246;-6.670;2023-04-27T06:54:14;101169.78;;;10.49;100.00
55916;BME280;41826;53.246;-6.670;2023-04-27T06:56:40;101167.34;;;10.57;100.00
55916;BME280;41826;53.246;-6.670;2023-04-27T06:59:08;101164.16;;;10.53;100.00
55916;BME280;41826;53.246;-6.670;2023-04-27T07:01:34;101153.22;;;10.48;100.00
55916;BME280;41826;53.246;-6.670;2023-04-27T07:03:59;101159.16;;;10.50;100.00
55916;BME280;41826;53.246;-6.670;2023-04-27T07:06:25;101145.97;;;10.40;100.00
55916;BME280;41826;53.246;-6.670;2023-04-27T07:08:50;101154.31;;;10.55;100.00
55916;BME280;41826;53.246;-6.670;2023-04-27T07:11:16;101162.78;;;10.59;100.00
55916;BME280;41826;53.246;-6.670;2023-04-27T07:13:42;101163.94;;;10.66;100.00
55916;BME280;41826;53.246;-6.670;2023-04-27T07:16:07;101163.41;;;10.41;100.00
55916;BME280;41826;53.246;-6.670;2023-04-27T07:18:33;101158.84;;;10.44;100.00
55916;BME280;41826;53.246;-6.670;2023-04-27T07:20:58;101152.72;;;10.64;100.00
55916;BME280;41826;53.246;-6.670;2023-04-27T07:23:24;101150.97;;;10.74;100.00
55916;BME280;41826;53.246;-6.670;2023-04-27T07:25:49;101156.25;;;10.94;100.00
55916;BME280;41826;53.246;-6.670;2023-04-27T07:28:16;101157.19;;;10.83;100.00
55916;BME280;41826;53.246;-6.670;2023-04-27T07:30:41;101172.47;;;10.99;100.00
55916;BME280;41826;53.246;-6.670;2023-04-27T07:33:07;101176.84;;;10.89;100.00
55916;BME280;41826;53.246;-6.670;2023-04-27T07:35:34;101194.41;;;10.88;100.00
55916;BME280;41826;53.246;-6.670;2023-04-27T07:38:00;101197.97;;;10.77;100.00
55916;BME280;41826;53.246;-6.670;2023-04-27T07:40:29;101190.94;;;10.88;100.00
55916;BME280;41826;53.246;-6.670;2023-04-27T07:42:55;101177.50;;;10.81;100.00
55916;BME280;41826;53.246;-6.670;2023-04-27T07:45:21;101181.13;;;10.90;100.00
55916;BME280;41826;53.246;-6.670;2023-04-27T07:47:47;101185.22;;;10.73;100.00
55916;BME280;41826;53.246;-6.670;2023-04-27T07:50:12;101179.22;;;10.92;100.00
55916;BME280;41826;53.246;-6.670;2023-04-27T07:52:42;101183.22;;;10.96;100.00
55916;BME280;41826;53.246;-6.670;2023-04-27T07:55:08;101195.59;;;10.74;100.00
55916;BME280;41826;53.246;-6.670;2023-04-27T07:57:34;101188.28;;;10.78;100.00
55916;BME280;41826;53.246;-6.670;2023-04-27T08:00:00;101191.50;;;10.81;100.00
55916;BME280;41826;53.246;-6.670;2023-04-27T08:02:26;101192.06;;;10.95;100.00
55916;BME280;41826;53.246;-6.670;2023-04-27T08:04:55;101188.78;;;11.02;100.00
55916;BME280;41826;53.246;-6.670;2023-04-27T08:07:21;101179.00;;;11.14;100.00
55916;BME280;41826;53.246;-6.670;2023-04-27T08:09:49;101168.03;;;10.99;100.00
55916;BME280;41826;53.246;-6.670;2023-04-27T08:12:15;101173.09;;;10.91;100.00
55916;BME280;41826;53.246;-6.670;2023-04-27T08:14:40;101179.91;;;11.03;100.00
55916;BME280;41826;53.246;-6.670;2023-04-27T08:17:06;101181.63;;;11.14;100.00
55916;BME280;41826;53.246;-6.670;2023-04-27T08:19:31;101167.88;;;11.01;100.00
55916;BME280;41826;53.246;-6.670;2023-04-27T08:21:56;101179.91;;;11.03;100.00
55916;BME280;41826;53.246;-6.670;2023-04-27T08:24:22;101169.28;;;11.05;100.00
55916;BME280;41826;53.246;-6.670;2023-04-27T08:26:47;101182.69;;;11.02;100.00
55916;BME280;41826;53.246;-6.670;2023-04-27T08:29:13;101169.69;;;11.00;100.00
55916;BME280;41826;53.246;-6.670;2023-04-27T08:31:38;101173.56;;;10.96;100.00
55916;BME280;41826;53.246;-6.670;2023-04-27T08:34:03;101166.56;;;11.26;100.00
55916;BME280;41826;53.246;-6.670;2023-04-27T08:36:29;101148.59;;;11.41;100.00
55916;BME280;41826;53.246;-6.670;2023-04-27T08:38:54;101115.38;;;11.40;100.00
55916;BME280;41826;53.246;-6.670;2023-04-27T08:41:21;101085.91;;;11.46;100.00
55916;BME280;41826;53.246;-6.670;2023-04-27T08:43:47;101069.72;;;11.31;100.00
55916;BME280;41826;53.246;-6.670;2023-04-27T08:46:20;101026.66;;;11.61;100.00
55916;BME280;41826;53.246;-6.670;2023-04-27T08:48:49;101006.09;;;11.27;100.00
55916;BME280;41826;53.246;-6.670;2023-04-27T08:51:17;101010.41;;;10.99;100.00
55916;BME280;41826;53.246;-6.670;2023-04-27T08:53:50;101033.72;;;11.61;100.00
55916;BME280;41826;53.246;-6.670;2023-04-27T08:56:17;100959.59;;;12.12;100.00
55916;BME280;41826;53.246;-6.670;2023-04-27T08:58:44;100806.31;;;12.10;100.00
55916;BME280;41826;53.246;-6.670;2023-04-27T09:01:09;100725.97;;;12.24;100.00
55916;BME280;41826;53.246;-6.670;2023-04-27T09:03:36;100683.41;;;12.29;100.00
55916;BME280;41826;53.246;-6.670;2023-04-27T09:06:04;100639.38;;;12.39;100.00
55916;BME280;41826;53.246;-6.670;2023-04-27T09:11:08;100576.66;;;11.82;100.00
55916;BME280;41826;53.246;-6.670;2023-04-27T09:13:38;100616.59;;;11.78;100.00
55916;BME280;41826;53.246;-6.670;2023-04-27T09:16:05;100620.72;;;11.98;100.00
55916;BME280;41826;53.246;-6.670;2023-04-27T09:18:34;100596.44;;;12.12;100.00
55916;BME280;41826;53.246;-6.670;2023-04-27T09:21:02;100626.28;;;11.77;100.00
55916;BME280;41826;53.246;-6.670;2023-04-27T09:23:33;100640.91;;;12.16;100.00
55916;BME280;41826;53.246;-6.670;2023-04-27T09:26:04;100633.19;;;11.96;100.00
55916;BME280;41826;53.246;-6.670;2023-04-27T09:28:33;100626.94;;;11.97;100.00
55916;BME280;41826;53.246;-6.670;2023-04-27T09:31:01;100633.41;;;11.85;100.00
55916;BME280;41826;53.246;-6.670;2023-04-27T09:33:30;100625.69;;;11.83;100.00
55916;BME280;41826;53.246;-6.670;2023-04-27T09:35:57;100622.88;;;11.85;100.00
55916;BME280;41826;53.246;-6.670;2023-04-27T09:38:26;100629.59;;;11.79;100.00
55916;BME280;41826;53.246;-6.670;2023-04-27T09:40:53;100667.91;;;11.82;100.00
55916;BME280;41826;53.246;-6.670;2023-04-27T09:43:19;100667.84;;;11.91;100.00
55916;BME280;41826;53.246;-6.670;2023-04-27T09:45:45;100659.19;;;11.81;100.00
55916;BME280;41826;53.246;-6.670;2023-04-27T09:48:11;100644.03;;;11.93;100.00
55916;BME280;41826;53.246;-6.670;2023-04-27T09:50:44;100653.25;;;11.97;100.00
55916;BME280;41826;53.246;-6.670;2023-04-27T09:53:11;100660.19;;;11.98;100.00
55916;BME280;41826;53.246;-6.670;2023-04-27T10:01:28;100713.91;;;11.60;100.00
55916;BME280;41826;53.246;-6.670;2023-04-27T10:07:01;100827.03;;;11.50;100.00
55916;BME280;41826;53.246;-6.670;2023-04-27T10:09:35;100836.63;;;11.32;100.00
55916;BME280;41826;53.246;-6.670;2023-04-27T10:14:50;100827.59;;;11.44;100.00
55916;BME280;41826;53.246;-6.670;2023-04-27T10:17:17;100843.47;;;11.52;100.00
55916;BME280;41826;53.246;-6.670;2023-04-27T10:19:52;100828.22;;;11.83;100.00
55916;BME280;41826;53.246;-6.670;2023-04-27T10:22:21;100787.88;;;11.47;100.00
55916;BME280;41826;53.246;-6.670;2023-04-27T10:24:49;100780.69;;;11.85;100.00
55916;BME280;41826;53.246;-6.670;2023-04-27T10:27:17;100725.38;;;12.12;100.00
55916;BME280;41826;53.246;-6.670;2023-04-27T10:29:45;100651.88;;;12.37;100.00
55916;BME280;41826;53.246;-6.670;2023-04-27T10:32:25;100591.47;;;12.35;100.00
55916;BME280;41826;53.246;-6.670;2023-04-27T10:35:00;100567.97;;;12.42;100.00
55916;BME280;41826;53.246;-6.670;2023-04-27T10:37:40;100519.88;;;12.24;100.00
55916;BME280;41826;53.246;-6.670;2023-04-27T10:40:07;100484.16;;;12.21;100.00
55916;BME280;41826;53.246;-6.670;2023-04-27T10:42:35;100473.19;;;12.34;100.00
55916;BME280;41826;53.246;-6.670;2023-04-27T10:45:01;100424.66;;;12.45;100.00
55916;BME280;41826;53.246;-6.670;2023-04-27T10:47:42;100415.88;;;12.03;100.00
55916;BME280;41826;53.246;-6.670;2023-04-27T10:50:11;100447.47;;;12.20;100.00
55916;BME280;41826;53.246;-6.670;2023-04-27T10:52:43;100413.91;;;12.05;100.00
55916;BME280;41826;53.246;-6.670;2023-04-27T10:55:19;100439.53;;;11.95;100.00
55916;BME280;41826;53.246;-6.670;2023-04-27T10:57:50;100435.94;;;12.12;100.00
55916;BME280;41826;53.246;-6.670;2023-04-27T11:00:29;100428.88;;;12.13;100.00
55916;BME280;41826;53.246;-6.670;2023-04-27T11:03:07;100436.38;;;11.91;100.00
55916;BME280;41826;53.246;-6.670;2023-04-27T11:05:33;100459.22;;;11.91;100.00
55916;BME280;41826;53.246;-6.670;2023-04-27T11:08:07;100470.81;;;12.14;100.00
55916;BME280;41826;53.246;-6.670;2023-04-27T11:10:34;100424.94;;;12.25;100.00
55916;BME280;41826;53.246;-6.670;2023-04-27T11:13:10;100416.47;;;11.97;100.00
55916;BME280;41826;53.246;-6.670;2023-04-27T11:15:52;100493.47;;;11.73;100.00
55916;BME280;41826;53.246;-6.670;2023-04-27T11:18:23;100542.75;;;11.97;100.00
55916;BME280;41826;53.246;-6.670;2023-04-27T11:20:53;100529.63;;;12.40;100.00
55916;BME280;41826;53.246;-6.670;2023-04-27T11:23:27;100489.94;;;12.33;100.00
55916;BME280;41826;53.246;-6.670;2023-04-27T11:25:54;100482.56;;;12.36;100.00
55916;BME280;41826;53.246;-6.670;2023-04-27T11:28:21;100477.03;;;12.05;100.00
55916;BME280;41826;53.246;-6.670;2023-04-27T11:30:57;100501.06;;;12.10;100.00
55916;BME280;41826;53.246;-6.670;2023-04-27T11:33:24;100462.84;;;12.41;100.00
55916;BME280;41826;53.246;-6.670;2023-04-27T11:35:50;100464.59;;;12.24;100.00
55916;BME280;41826;53.246;-6.670;2023-04-27T11:38:16;100468.72;;;12.26;100.00
55916;BME280;41826;53.246;-6.670;2023-04-27T11:40:42;100462.25;;;12.12;100.00
55916;BME280;41826;53.246;-6.670;2023-04-27T11:43:14;100450.66;;;12.40;100.00
55916;BME280;41826;53.246;-6.670;2023-04-27T11:45:43;100424.19;;;12.49;100.00
55916;BME280;41826;53.246;-6.670;2023-04-27T11:48:14;100402.78;;;12.52;100.00
55916;BME280;41826;53.246;-6.670;2023-04-27T11:50:40;100421.22;;;12.44;100.00
55916;BME280;41826;53.246;-6.670;2023-04-27T11:53:06;100389.97;;;12.82;100.00
55916;BME280;41826;53.246;-6.670;2023-04-27T11:55:36;100343.00;;;13.02;100.00
55916;BME280;41826;53.246;-6.670;2023-04-27T11:58:01;100241.94;;;13.26;100.00
55916;BME280;41826;53.246;-6.670;2023-04-27T12:00:27;100244.78;;;12.61;100.00
55916;BME280;41826;53.246;-6.670;2023-04-27T12:02:52;100264.03;;;12.69;100.00
55916;BME280;41826;53.246;-6.670;2023-04-27T12:05:18;100295.31;;;12.72;100.00
55916;BME280;41826;53.246;-6.670;2023-04-27T12:07:44;100278.31;;;12.83;100.00
55916;BME280;41826;53.246;-6.670;2023-04-27T12:10:10;100310.63;;;12.61;100.00
55916;BME280;41826;53.246;-6.670;2023-04-27T12:12:36;100318.19;;;12.55;100.00
55916;BME280;41826;53.246;-6.670;2023-04-27T12:15:02;100318.50;;;12.77;100.00
55916;BME280;41826;53.246;-6.670;2023-04-27T12:17:27;100313.91;;;12.79;100.00
55916;BME280;41826;53.246;-6.670;2023-04-27T12:19:52;100331.69;;;12.77;100.00
55916;BME280;41826;53.246;-6.670;2023-04-27T12:22:18;100276.63;;;13.07;100.00
55916;BME280;41826;53.246;-6.670;2023-04-27T12:24:44;100174.75;;;13.22;100.00
55916;BME280;41826;53.246;-6.670;2023-04-27T12:27:09;100155.56;;;13.36;100.00
55916;BME280;41826;53.246;-6.670;2023-04-27T12:29:35;100157.94;;;13.23;100.00
55916;BME280;41826;53.246;-6.670;2023-04-27T12:32:01;100157.59;;;13.34;100.00
55916;BME280;41826;53.246;-6.670;2023-04-27T12:34:26;100154.94;;;13.34;100.00
55916;BME280;41826;53.246;-6.670;2023-04-27T12:36:52;100082.44;;;13.53;100.00
55916;BME280;41826;53.246;-6.670;2023-04-27T12:39:20;100032.88;;;13.49;100.00
55916;BME280;41826;53.246;-6.670;2023-04-27T12:41:47;99997.28;;;13.68;100.00
55916;BME280;41826;53.246;-6.670;2023-04-27T12:44:14;99934.41;;;13.71;100.00
55916;BME280;41826;53.246;-6.670;2023-04-27T12:46:40;99951.34;;;13.47;100.00